createdAt,value
2022-09-24T00:01:35.391Z,6.38
2022-09-24T00:04:05.965Z,5.18
2022-09-24T00:06:46.782Z,6.55
2022-09-24T00:09:16.437Z,7.88
2022-09-24T00:11:45.420Z,6.40
2022-09-24T00:14:13.017Z,10.73
2022-09-24T00:16:40.664Z,4.88
2022-09-24T00:19:07.698Z,8.35
2022-09-24T00:21:35.833Z,6.38
2022-09-24T00:24:35.844Z,6.10
2022-09-24T00:27:05.730Z,6.97
2022-09-24T00:29:34.170Z,6.60
2022-09-24T00:32:02.166Z,9.18
2022-09-24T00:34:29.424Z,5.47
2022-09-24T00:36:56.524Z,5.43
2022-09-24T00:39:23.787Z,7.82
2022-09-24T00:41:51.501Z,7.18
2022-09-24T00:44:40.880Z,6.03
2022-09-24T00:47:27.379Z,6.57
2022-09-24T00:50:12.768Z,5.18
2022-09-24T00:52:45.453Z,8.60
2022-09-24T00:55:14.252Z,5.78
2022-09-24T00:57:42.165Z,6.55
2022-09-24T01:00:10.379Z,6.10
2022-09-24T01:02:41.038Z,7.00
2022-09-24T01:05:10.154Z,6.72
2022-09-24T01:07:37.402Z,7.47
2022-09-24T01:10:05.325Z,5.60
2022-09-24T01:12:54.051Z,8.25
2022-09-24T01:15:38.972Z,7.78
2022-09-24T01:18:09.354Z,11.82
2022-09-24T01:21:13.393Z,7.97
2022-09-24T01:24:27.694Z,6.93
2022-09-24T01:27:02.628Z,6.68
2022-09-24T01:29:46.590Z,9.05
2022-09-24T01:32:28.920Z,8.70
2022-09-24T01:35:15.686Z,8.52
2022-09-24T01:37:48.555Z,8.93
2022-09-24T01:40:16.416Z,11.32
2022-09-24T01:42:44.905Z,10.35
2022-09-24T01:45:14.086Z,15.63
2022-09-24T01:47:41.787Z,10.48
2022-09-24T01:50:12.103Z,10.77
2022-09-24T01:52:50.860Z,16.02
2022-09-24T01:55:22.516Z,13.15
2022-09-24T01:57:54.574Z,11.85
2022-09-24T02:00:22.156Z,11.88
2022-09-24T02:02:54.779Z,16.13
2022-09-24T02:05:24.804Z,11.40
2022-09-24T02:07:59.021Z,15.27
2022-09-24T02:10:31.115Z,12.23
2022-09-24T02:13:03.792Z,12.10
2022-09-24T02:15:45.704Z,12.20
2022-09-24T02:18:16.297Z,15.00
2022-09-24T02:20:44.342Z,11.18
2022-09-24T02:23:15.553Z,13.60
2022-09-24T02:25:50.580Z,13.77
2022-09-24T02:28:19.383Z,15.52
2022-09-24T02:30:59.025Z,11.75
2022-09-24T02:33:47.242Z,20.17
2022-09-24T02:36:14.304Z,11.57
2022-09-24T02:38:43.164Z,11.05
2022-09-24T02:41:13.470Z,15.15
2022-09-24T02:43:41.079Z,10.82
2022-09-24T02:46:10.185Z,10.18
2022-09-24T02:48:37.553Z,10.90
2022-09-24T02:51:05.262Z,14.02
2022-09-24T02:53:32.947Z,14.75
2022-09-24T02:56:00.929Z,12.82
2022-09-24T02:58:29.547Z,14.27
2022-09-24T03:00:57.163Z,14.95
2022-09-24T03:03:24.721Z,16.20
2022-09-24T03:05:53.015Z,18.75
2022-09-24T03:08:27.133Z,17.95
2022-09-24T03:13:23.040Z,17.80
2022-09-24T03:15:50.124Z,18.15
2022-09-24T03:18:17.285Z,18.77
2022-09-24T03:20:44.553Z,16.45
2022-09-24T03:23:11.566Z,15.23
2022-09-24T03:25:38.597Z,15.05
2022-09-24T03:28:05.953Z,17.17
2022-09-24T03:30:51.835Z,18.70
2022-09-24T03:33:18.937Z,20.00
2022-09-24T03:35:45.934Z,20.83
2022-09-24T03:38:12.979Z,17.92
2022-09-24T03:40:40.131Z,21.58
2022-09-24T03:43:07.238Z,20.13
2022-09-24T03:45:34.246Z,17.52
2022-09-24T03:48:01.516Z,19.13
2022-09-24T03:50:28.628Z,21.52
2022-09-24T03:52:55.770Z,21.10
2022-09-24T03:55:22.929Z,20.05
2022-09-24T03:57:49.980Z,22.17
2022-09-24T04:00:17.068Z,24.63
2022-09-24T04:02:44.994Z,20.35
2022-09-24T04:05:12.084Z,25.42
2022-09-24T04:07:39.102Z,23.05
2022-09-24T04:10:06.611Z,20.73
2022-09-24T04:12:33.879Z,22.73
2022-09-24T04:15:02.990Z,24.88
2022-09-24T04:17:31.418Z,23.42
2022-09-24T04:19:58.898Z,22.08
2022-09-24T04:22:26.117Z,21.27
2022-09-24T04:24:53.876Z,23.02
2022-09-24T04:27:21.522Z,20.80
2022-09-24T04:29:51.238Z,22.90
2022-09-24T04:32:18.222Z,26.77
2022-09-24T04:34:45.212Z,24.08
2022-09-24T04:37:12.262Z,23.60
2022-09-24T04:39:39.323Z,28.00
2022-09-24T04:42:06.434Z,26.33
2022-09-24T04:44:33.500Z,24.90
2022-09-24T04:47:02.369Z,26.17
2022-09-24T04:49:29.704Z,26.33
2022-09-24T04:52:00.278Z,26.00
2022-09-24T04:54:29.671Z,27.90
2022-09-24T04:56:56.855Z,23.10
2022-09-24T04:59:23.920Z,28.35
2022-09-24T05:01:51.195Z,27.85
2022-09-24T05:04:18.544Z,28.20
2022-09-24T05:06:45.692Z,26.40
2022-09-24T05:09:12.976Z,24.48
2022-09-24T05:11:40.223Z,24.45
2022-09-24T05:14:08.488Z,24.83
2022-09-24T05:16:35.703Z,24.23
2022-09-24T05:19:04.966Z,22.73
2022-09-24T05:21:32.348Z,22.30
2022-09-24T05:24:02.859Z,24.45
2022-09-24T05:26:48.699Z,23.15
2022-09-24T05:29:15.845Z,22.45
2022-09-24T05:31:43.194Z,19.90
2022-09-24T05:34:10.874Z,23.33
2022-09-24T05:36:38.037Z,20.80
2022-09-24T05:39:05.274Z,20.35
2022-09-24T05:41:32.496Z,20.67
2022-09-24T05:43:59.658Z,22.02
2022-09-24T05:46:28.384Z,23.05
2022-09-24T05:48:56.320Z,21.42
2022-09-24T05:51:23.512Z,21.63
2022-09-24T05:53:50.660Z,19.85
2022-09-24T05:56:18.346Z,18.15
2022-09-24T05:58:48.875Z,20.02
2022-09-24T06:01:16.625Z,21.98
2022-09-24T06:03:46.391Z,19.88
2022-09-24T06:06:13.484Z,20.52
2022-09-24T06:08:40.566Z,17.33
2022-09-24T06:11:08.475Z,18.05
2022-09-24T06:13:35.550Z,17.20
2022-09-24T06:16:04.954Z,19.15
2022-09-24T06:18:35.042Z,21.92
2022-09-24T06:21:07.786Z,21.38
2022-09-24T06:23:37.563Z,18.65
2022-09-24T06:26:07.703Z,18.23
2022-09-24T06:28:35.342Z,19.98
2022-09-24T06:31:02.735Z,18.80
2022-09-24T06:33:30.567Z,19.85
2022-09-24T06:36:02.166Z,18.02
2022-09-24T06:38:30.004Z,13.68
2022-09-24T06:41:02.343Z,17.02
2022-09-24T06:43:30.375Z,15.70
2022-09-24T06:45:59.010Z,18.33
2022-09-24T06:48:27.477Z,18.30
2022-09-24T06:50:57.418Z,16.05
2022-09-24T06:53:24.811Z,16.65
2022-09-24T06:55:52.057Z,16.48
2022-09-24T06:58:20.976Z,22.20
2022-09-24T07:00:58.814Z,18.17
2022-09-24T07:03:27.913Z,19.35
2022-09-24T07:05:55.763Z,20.17
2022-09-24T07:08:23.367Z,18.65
2022-09-24T07:10:51.716Z,20.65
2022-09-24T07:13:21.198Z,20.30
2022-09-24T07:15:50.331Z,19.33
2022-09-24T07:18:18.497Z,20.80
2022-09-24T07:20:51.766Z,21.20
2022-09-24T07:23:18.804Z,21.10
2022-09-24T07:25:45.880Z,21.35
2022-09-24T07:28:18.832Z,22.80
2022-09-24T07:30:45.885Z,23.17
2022-09-24T07:33:12.919Z,29.35
2022-09-24T07:35:40.371Z,27.73
2022-09-24T07:38:12.060Z,24.52
2022-09-24T07:40:39.328Z,24.55
2022-09-24T07:43:13.606Z,26.45
2022-09-24T07:45:41.611Z,30.60
2022-09-24T07:48:10.558Z,23.10
2022-09-24T07:50:42.459Z,24.08
2022-09-24T07:53:13.625Z,21.80
2022-09-24T07:55:41.435Z,23.38
2022-09-24T07:58:12.016Z,29.90
2022-09-24T08:00:41.029Z,21.98
2022-09-24T08:03:08.171Z,25.17
2022-09-24T08:05:35.375Z,26.35
2022-09-24T08:08:02.510Z,26.67
2022-09-24T08:10:29.626Z,29.58
2022-09-24T08:12:59.320Z,26.20
2022-09-24T08:15:26.552Z,25.02
2022-09-24T08:17:53.650Z,26.98
2022-09-24T08:20:23.408Z,25.95
2022-09-24T08:22:50.546Z,24.65
2022-09-24T08:25:17.566Z,30.77
2022-09-24T08:27:44.529Z,26.13
2022-09-24T08:30:12.090Z,29.55
2022-09-24T08:32:39.115Z,38.42
2022-09-24T08:35:08.219Z,27.33
2022-09-24T08:37:35.286Z,29.90
2022-09-24T08:40:03.582Z,26.42
2022-09-24T08:42:49.423Z,30.98
2022-09-24T08:45:35.916Z,27.65
2022-09-24T08:48:16.485Z,25.63
2022-09-24T08:50:50.903Z,32.13
2022-09-24T08:54:12.117Z,28.35
2022-09-24T08:56:44.059Z,27.77
2022-09-24T08:59:26.787Z,29.65
2022-09-24T09:02:21.404Z,30.23
2022-09-24T09:07:49.637Z,24.75
2022-09-24T09:10:27.769Z,28.02
2022-09-24T09:13:07.121Z,27.45
2022-09-24T09:15:41.365Z,33.42
2022-09-24T09:18:31.572Z,31.85
2022-09-24T09:21:16.972Z,40.33
2022-09-24T09:23:51.708Z,29.60
2022-09-24T09:26:20.245Z,29.92
2022-09-24T09:28:48.501Z,31.48
2022-09-24T09:31:22.431Z,30.20
2022-09-24T09:34:01.438Z,30.05
2022-09-24T09:37:06.129Z,28.42
2022-09-24T09:39:45.319Z,28.77
2022-09-24T09:42:15.340Z,33.75
2022-09-24T09:44:43.648Z,35.95
2022-09-24T09:47:29.510Z,32.00
2022-09-24T09:50:03.219Z,35.97
2022-09-24T09:52:35.225Z,30.90
2022-09-24T09:55:05.141Z,31.98
2022-09-24T09:57:35.606Z,34.72
2022-09-24T10:00:05.131Z,30.92
2022-09-24T10:02:43.607Z,33.65
2022-09-24T10:05:24.998Z,36.47
2022-09-24T10:07:57.871Z,38.47
2022-09-24T10:10:29.325Z,36.42
2022-09-24T10:13:12.501Z,31.77
2022-09-24T10:15:50.155Z,32.53
2022-09-24T10:18:23.529Z,38.13
2022-09-24T10:20:51.021Z,31.10
2022-09-24T10:23:22.188Z,34.40
2022-09-24T10:26:00.143Z,31.88
2022-09-24T10:28:46.862Z,37.03
2022-09-24T10:31:21.470Z,31.30
2022-09-24T10:33:52.218Z,30.98
2022-09-24T10:36:22.562Z,36.38
2022-09-24T10:39:12.855Z,29.83
2022-09-24T10:41:50.959Z,34.83
2022-09-24T10:44:20.661Z,39.42
2022-09-24T10:46:56.821Z,36.67
2022-09-24T10:49:42.419Z,36.67
2022-09-24T10:52:24.681Z,37.70
2022-09-24T10:54:51.654Z,33.13
2022-09-24T10:57:31.175Z,44.97
2022-09-24T11:00:09.374Z,39.45
2022-09-24T11:03:05.898Z,42.88
2022-09-24T11:05:44.768Z,32.20
2022-09-24T11:08:26.234Z,37.15
2022-09-24T11:11:16.674Z,39.58
2022-09-24T11:14:07.288Z,38.65
2022-09-24T11:16:57.039Z,37.80
2022-09-24T11:19:42.554Z,32.65
2022-09-24T11:22:17.126Z,42.58
2022-09-24T11:25:16.292Z,34.05
2022-09-24T11:28:01.496Z,41.60
2022-09-24T11:30:35.100Z,38.65
2022-09-24T11:33:08.074Z,37.78
2022-09-24T11:35:46.297Z,38.17
2022-09-24T11:38:36.233Z,39.38
2022-09-24T11:41:15.365Z,36.80
2022-09-24T11:44:01.290Z,35.90
2022-09-24T11:46:55.458Z,40.08
2022-09-24T11:49:31.610Z,40.28
2022-09-24T11:52:48.113Z,41.20
2022-09-24T11:55:34.276Z,41.67
2022-09-24T11:59:20.499Z,33.83
2022-09-24T12:01:54.489Z,44.67
2022-09-24T12:04:24.980Z,36.78
2022-09-24T12:07:00.146Z,46.65
2022-09-24T12:09:45.177Z,38.28
2022-09-24T12:12:26.751Z,38.97
2022-09-24T12:15:01.502Z,39.63
2022-09-24T12:18:16.103Z,44.17
2022-09-24T12:20:50.877Z,37.63
2022-09-24T12:23:22.970Z,39.45
2022-09-24T12:25:53.538Z,39.40
2022-09-24T12:28:40.272Z,35.33
2022-09-24T12:31:49.744Z,35.53
2022-09-24T12:34:31.807Z,33.50
2022-09-24T12:37:02.816Z,34.15
2022-09-24T12:39:50.088Z,37.80
2022-09-24T12:42:21.931Z,33.10
2022-09-24T12:44:54.230Z,40.40
2022-09-24T12:47:29.493Z,42.97
2022-09-24T12:50:00.185Z,29.92
2022-09-24T12:52:41.889Z,34.25
2022-09-24T12:55:28.117Z,34.17
2022-09-24T12:58:06.003Z,35.22
2022-09-24T13:00:42.471Z,33.65
2022-09-24T13:03:34.249Z,35.50
2022-09-24T13:06:02.208Z,35.40
2022-09-24T13:08:40.294Z,32.72
2022-09-24T13:11:25.790Z,31.98
2022-09-24T13:14:15.554Z,34.95
2022-09-24T13:16:51.089Z,29.83
2022-09-24T13:19:57.347Z,34.28
2022-09-24T13:22:32.800Z,28.10
2022-09-24T13:25:09.266Z,34.20
2022-09-24T13:27:41.552Z,33.55
2022-09-24T13:30:08.808Z,32.90
2022-09-24T13:32:46.587Z,34.90
2022-09-24T13:35:22.145Z,32.30
2022-09-24T13:37:55.758Z,29.63
2022-09-24T13:40:28.710Z,30.42
2022-09-24T13:43:03.124Z,34.90
2022-09-24T13:45:31.935Z,34.53
2022-09-24T13:48:03.851Z,33.42
2022-09-24T13:50:38.834Z,30.17
2022-09-24T13:53:20.372Z,28.60
2022-09-24T13:55:53.052Z,29.80
2022-09-24T13:58:27.405Z,23.80
2022-09-24T14:00:55.240Z,27.40
2022-09-24T14:03:26.912Z,27.88
2022-09-24T14:05:54.534Z,29.08
2022-09-24T14:08:24.218Z,29.20
2022-09-24T14:10:51.415Z,28.02
2022-09-24T14:13:21.430Z,24.83
2022-09-24T14:16:08.817Z,27.20
2022-09-24T14:18:40.374Z,27.65
2022-09-24T14:21:20.978Z,27.08
2022-09-24T14:23:57.065Z,25.33
2022-09-24T14:27:07.643Z,27.42
2022-09-24T14:29:48.467Z,24.30
2022-09-24T14:32:26.882Z,25.58
2022-09-24T14:35:07.866Z,23.50
2022-09-24T14:37:40.660Z,24.58
2022-09-24T14:40:14.210Z,28.42
2022-09-24T14:42:47.054Z,23.35
2022-09-24T14:45:25.499Z,27.70
2022-09-24T14:48:02.574Z,25.33
2022-09-24T14:50:40.497Z,23.10
2022-09-24T14:53:22.277Z,24.70
2022-09-24T14:55:49.951Z,25.70
2022-09-24T14:58:33.035Z,24.40
2022-09-24T15:01:07.122Z,28.50
2022-09-24T15:06:17.941Z,25.60
2022-09-24T15:08:58.032Z,24.20
2022-09-24T15:11:27.900Z,23.02
2022-09-24T15:14:00.567Z,24.45
2022-09-24T15:16:31.780Z,21.27
2022-09-24T15:19:14.409Z,22.60
2022-09-24T15:21:41.624Z,21.85
2022-09-24T15:24:10.004Z,22.02
2022-09-24T15:26:40.922Z,21.70
2022-09-24T15:29:09.878Z,23.45
2022-09-24T15:31:37.212Z,21.45
2022-09-24T15:34:04.297Z,25.50
2022-09-24T15:36:31.508Z,21.92
2022-09-24T15:39:02.320Z,22.92
2022-09-24T15:41:29.474Z,21.30
2022-09-24T15:43:58.384Z,25.35
2022-09-24T15:46:26.750Z,20.98
2022-09-24T15:48:54.127Z,22.75
2022-09-24T15:51:22.885Z,24.40
2022-09-24T15:53:50.578Z,25.02
2022-09-24T15:56:17.871Z,24.20
2022-09-24T15:58:45.359Z,22.90
2022-09-24T16:01:18.976Z,22.95
2022-09-24T16:03:46.286Z,28.17
2022-09-24T16:06:14.184Z,27.67
2022-09-24T16:08:42.463Z,25.40
2022-09-24T16:11:09.844Z,26.95
2022-09-24T16:13:37.140Z,27.02
2022-09-24T16:16:06.601Z,22.10
2022-09-24T16:18:33.905Z,21.75
2022-09-24T16:21:10.583Z,24.33
2022-09-24T16:23:37.640Z,27.65
2022-09-24T16:26:05.487Z,26.38
2022-09-24T16:28:32.760Z,23.02
2022-09-24T16:31:04.802Z,25.80
2022-09-24T16:33:32.059Z,25.55
2022-09-24T16:36:07.978Z,20.33
2022-09-24T16:38:36.626Z,22.25
2022-09-24T16:41:05.012Z,21.52
2022-09-24T16:43:33.102Z,19.83
2022-09-24T16:46:03.572Z,23.25
2022-09-24T16:48:32.089Z,23.80
2022-09-24T16:51:04.505Z,22.40
2022-09-24T16:53:34.245Z,18.75
2022-09-24T16:56:11.080Z,23.63
2022-09-24T16:58:38.147Z,21.00
2022-09-24T17:01:07.047Z,23.02
2022-09-24T17:03:34.924Z,22.42
2022-09-24T17:06:03.554Z,23.00
2022-09-24T17:08:50.698Z,20.83
2022-09-24T17:11:17.857Z,22.35
2022-09-24T17:13:47.424Z,26.35
2022-09-24T17:16:15.530Z,22.20
2022-09-24T17:18:42.676Z,22.48
2022-09-24T17:21:12.150Z,23.42
2022-09-24T17:23:40.009Z,21.10
2022-09-24T17:26:11.665Z,30.88
2022-09-24T17:28:40.919Z,22.35
2022-09-24T17:31:09.639Z,24.00
2022-09-24T17:33:44.686Z,24.13
2022-09-24T17:36:14.066Z,25.88
2022-09-24T17:38:41.974Z,29.48
2022-09-24T17:41:11.913Z,25.33
2022-09-24T17:43:40.287Z,29.13
2022-09-24T17:46:14.656Z,26.42
2022-09-24T17:48:45.383Z,24.75
2022-09-24T17:51:19.180Z,32.30
2022-09-24T17:53:46.979Z,26.70
2022-09-24T17:56:17.459Z,33.25
2022-09-24T17:58:46.968Z,27.27
2022-09-24T18:01:19.060Z,34.55
2022-09-24T18:03:46.225Z,30.08
2022-09-24T18:06:17.490Z,28.00
2022-09-24T18:08:45.609Z,35.38
2022-09-24T18:11:18.690Z,34.95
2022-09-24T18:13:53.578Z,30.98
2022-09-24T18:16:23.981Z,30.63
2022-09-24T18:18:55.367Z,26.80
2022-09-24T18:21:24.154Z,30.15
2022-09-24T18:23:55.724Z,36.28
2022-09-24T18:26:25.185Z,32.45
2022-09-24T18:28:53.587Z,39.97
2022-09-24T18:31:23.929Z,30.15
2022-09-24T18:33:52.737Z,34.97
2022-09-24T18:36:21.668Z,32.85
2022-09-24T18:38:49.513Z,31.38
2022-09-24T18:41:21.354Z,31.80
2022-09-24T18:43:48.962Z,32.63
2022-09-24T18:46:17.676Z,32.92
2022-09-24T18:48:47.318Z,32.72
2022-09-24T18:51:28.315Z,32.50
2022-09-24T18:54:07.295Z,35.85
2022-09-24T18:56:36.113Z,36.08
2022-09-24T18:59:10.336Z,32.67
2022-09-24T19:01:38.428Z,31.85
2022-09-24T19:04:09.056Z,36.30
2022-09-24T19:06:38.769Z,31.98
2022-09-24T19:09:06.777Z,30.20
2022-09-24T19:11:34.666Z,32.88
2022-09-24T19:14:04.574Z,35.47
2022-09-24T19:16:32.937Z,32.22
2022-09-24T19:19:01.212Z,31.45
2022-09-24T19:21:28.910Z,32.58
2022-09-24T19:23:58.478Z,35.50
2022-09-24T19:26:28.429Z,37.92
2022-09-24T19:28:55.745Z,31.38
2022-09-24T19:31:24.196Z,33.08
2022-09-24T19:33:54.325Z,37.22
2022-09-24T19:36:22.281Z,35.28
2022-09-24T19:38:50.274Z,34.75
2022-09-24T19:41:21.229Z,38.17
2022-09-24T19:43:50.788Z,36.55
2022-09-24T19:46:19.144Z,34.13
2022-09-24T19:48:49.011Z,35.05
2022-09-24T19:51:17.883Z,36.60
2022-09-24T19:53:50.356Z,37.60
2022-09-24T19:56:19.334Z,36.70
2022-09-24T19:58:47.181Z,34.70
2022-09-24T20:01:17.211Z,37.08
2022-09-24T20:03:45.198Z,36.72
2022-09-24T20:06:18.362Z,37.33
2022-09-24T20:08:46.627Z,36.53
2022-09-24T20:11:20.275Z,35.15
2022-09-24T20:13:49.299Z,37.58
2022-09-24T20:16:19.993Z,35.30
2022-09-24T20:18:48.501Z,35.95
2022-09-24T20:21:18.172Z,34.60
2022-09-24T20:23:46.906Z,38.83
2022-09-24T20:26:34.032Z,34.00
2022-09-24T20:29:02.141Z,40.83
2022-09-24T20:31:29.843Z,40.10
2022-09-24T20:33:57.068Z,39.92
2022-09-24T20:36:25.295Z,43.13
2022-09-24T20:38:53.087Z,39.80
2022-09-24T20:41:23.523Z,41.88
2022-09-24T20:43:52.102Z,41.08
2022-09-24T20:46:24.247Z,44.20
2022-09-24T20:48:52.601Z,45.22
2022-09-24T20:51:21.419Z,40.55
2022-09-24T20:53:49.446Z,38.22
2022-09-24T20:56:18.004Z,37.15
2022-09-24T20:58:45.309Z,41.05
2022-09-24T21:01:12.399Z,40.53
2022-09-24T21:03:45.323Z,40.75
2022-09-24T21:06:14.814Z,41.47
2022-09-24T21:08:46.578Z,39.78
2022-09-24T21:11:19.867Z,41.35
2022-09-24T21:13:50.027Z,38.88
2022-09-24T21:16:20.740Z,38.55
2022-09-24T21:18:49.341Z,44.17
2022-09-24T21:21:19.323Z,38.97
2022-09-24T21:23:49.658Z,39.53
2022-09-24T21:26:18.698Z,42.55
2022-09-24T21:28:47.312Z,39.08
2022-09-24T21:31:16.433Z,39.88
2022-09-24T21:33:48.391Z,40.38
2022-09-24T21:36:19.327Z,42.55
2022-09-24T21:38:57.282Z,41.70
2022-09-24T21:41:27.097Z,49.45
2022-09-24T21:44:17.673Z,42.22
2022-09-24T21:46:46.047Z,37.65
2022-09-24T21:49:13.315Z,42.22
2022-09-24T21:51:41.099Z,42.33
2022-09-24T21:54:18.333Z,41.47
2022-09-24T21:56:46.367Z,43.42
2022-09-24T21:59:32.743Z,40.22
2022-09-24T22:02:01.452Z,43.90
2022-09-24T22:04:28.758Z,45.10
2022-09-24T22:06:55.791Z,43.60
2022-09-24T22:09:27.202Z,44.88
2022-09-24T22:11:55.920Z,44.63
2022-09-24T22:14:23.451Z,41.10
2022-09-24T22:16:50.667Z,47.28
2022-09-24T22:19:18.101Z,46.70
2022-09-24T22:21:45.222Z,40.75
2022-09-24T22:24:15.064Z,49.75
2022-09-24T22:26:42.205Z,45.60
2022-09-24T22:29:10.296Z,51.88
2022-09-24T22:31:37.355Z,49.95
2022-09-24T22:34:23.243Z,53.63
2022-09-24T22:36:51.617Z,50.28
2022-09-24T22:39:21.769Z,45.85
2022-09-24T22:41:49.295Z,50.28
2022-09-24T22:44:16.355Z,47.08
2022-09-24T22:46:43.396Z,51.17
2022-09-24T22:49:10.921Z,50.78
2022-09-24T22:51:39.353Z,43.97
2022-09-24T22:54:08.171Z,53.63
2022-09-24T22:56:36.205Z,49.58
2022-09-24T22:59:09.530Z,50.33
2022-09-24T23:01:42.638Z,46.88
2022-09-24T23:04:14.909Z,46.07
2022-09-24T23:06:43.479Z,46.38
2022-09-24T23:09:10.755Z,39.08
2022-09-24T23:11:38.539Z,42.80
2022-09-24T23:14:11.204Z,47.40
2022-09-24T23:16:39.243Z,44.65
2022-09-24T23:19:16.915Z,47.85
2022-09-24T23:21:47.514Z,37.88
2022-09-24T23:24:17.602Z,45.35
2022-09-24T23:26:45.581Z,43.97
2022-09-24T23:29:13.432Z,40.42
2022-09-24T23:31:40.623Z,43.13
2022-09-24T23:34:08.779Z,49.30
2022-09-24T23:36:36.458Z,44.97
2022-09-24T23:39:04.629Z,48.13
2022-09-24T23:41:34.132Z,46.28
2022-09-24T23:44:01.514Z,45.50
2022-09-24T23:46:28.954Z,41.83
2022-09-24T23:48:56.547Z,47.95
2022-09-24T23:51:24.039Z,47.63
2022-09-24T23:53:51.718Z,69.97
2022-09-24T23:56:19.911Z,48.55
2022-09-24T23:58:47.394Z,51.60
